createdAt,value
2022-11-24T00:02:53.515Z,99162.22
2022-11-24T00:05:55.978Z,99165.31
2022-11-24T00:08:58.701Z,99161.66
2022-11-24T00:12:01.339Z,99166.38
2022-11-24T00:15:03.769Z,99166.09
2022-11-24T00:18:06.229Z,99167.50
2022-11-24T00:21:08.872Z,99160.19
2022-11-24T00:24:11.929Z,99165.22
2022-11-24T00:27:14.023Z,99175.84
2022-11-24T00:30:16.420Z,99173.22
2022-11-24T00:33:18.553Z,99171.47
2022-11-24T00:36:22.789Z,99187.25
2022-11-24T00:39:25.032Z,99179.31
2022-11-24T00:42:27.439Z,99186.56
2022-11-24T00:45:29.515Z,99187.34
2022-11-24T00:48:32.041Z,99188.78
2022-11-24T00:51:34.128Z,99197.78
2022-11-24T00:54:36.488Z,99188.03
2022-11-24T00:57:38.565Z,99198.75
2022-11-24T01:00:40.911Z,99204.59
2022-11-24T01:03:43.419Z,99201.44
2022-11-24T01:06:45.766Z,99201.56
2022-11-24T01:09:47.853Z,99207.81
2022-11-24T01:12:50.368Z,99200.28
2022-11-24T01:15:52.554Z,99208.22
2022-11-24T01:18:55.685Z,99208.50
2022-11-24T01:21:57.761Z,99212.75
2022-11-24T01:25:00.105Z,99214.16
2022-11-24T01:28:02.193Z,99209.72
2022-11-24T01:31:07.012Z,99214.00
2022-11-24T01:34:09.305Z,99207.41
2022-11-24T01:37:11.924Z,99204.00
2022-11-24T01:40:14.133Z,99211.06
2022-11-24T01:43:19.043Z,99214.66
2022-11-24T01:46:44.842Z,99215.31
2022-11-24T01:49:51.443Z,99221.13
2022-11-24T01:52:55.559Z,99218.94
2022-11-24T01:55:58.678Z,99228.25
2022-11-24T01:59:02.740Z,99221.22
2022-11-24T02:02:05.767Z,99219.22
2022-11-24T02:05:33.253Z,99214.91
2022-11-24T02:09:07.951Z,99214.78
2022-11-24T02:12:10.393Z,99219.62
2022-11-24T02:15:15.385Z,99222.22
2022-11-24T02:18:17.482Z,99224.91
2022-11-24T02:21:19.954Z,99222.31
2022-11-24T02:24:32.983Z,99215.37
2022-11-24T02:27:35.789Z,99221.13
2022-11-24T02:30:38.036Z,99226.59
2022-11-24T02:33:40.823Z,99226.47
2022-11-24T02:36:42.934Z,99227.09
2022-11-24T02:39:45.282Z,99223.91
2022-11-24T02:42:47.582Z,99229.47
2022-11-24T02:45:50.094Z,99226.81
2022-11-24T02:48:52.289Z,99223.84
2022-11-24T02:51:54.631Z,99229.56
2022-11-24T02:54:56.725Z,99219.38
2022-11-24T02:57:59.188Z,99230.09
2022-11-24T03:01:01.510Z,99233.09
2022-11-24T03:04:03.988Z,99228.34
2022-11-24T03:07:06.294Z,99234.88
2022-11-24T03:10:09.078Z,99233.47
2022-11-24T03:13:11.395Z,99236.66
2022-11-24T03:16:13.852Z,99241.22
2022-11-24T03:19:15.974Z,99239.94
2022-11-24T03:22:18.402Z,99247.37
2022-11-24T03:25:20.567Z,99245.94
2022-11-24T03:28:22.949Z,99246.19
2022-11-24T03:31:25.132Z,99251.56
2022-11-24T03:34:27.521Z,99259.31
2022-11-24T03:37:29.785Z,99259.50
2022-11-24T03:40:32.138Z,99253.97
2022-11-24T03:43:37.808Z,99257.31
2022-11-24T03:46:43.067Z,99249.59
2022-11-24T03:49:45.767Z,99250.06
2022-11-24T03:52:48.183Z,99253.16
2022-11-24T03:55:50.428Z,99261.69
2022-11-24T03:58:52.776Z,99251.38
2022-11-24T04:01:55.030Z,99262.69
2022-11-24T04:04:57.419Z,99263.59
2022-11-24T04:08:02.944Z,99258.34
2022-11-24T04:11:05.504Z,99270.81
2022-11-24T04:14:12.089Z,99272.44
2022-11-24T04:17:15.846Z,99268.13
2022-11-24T04:20:17.986Z,99269.06
2022-11-24T04:23:20.367Z,99276.56
2022-11-24T04:26:22.475Z,99272.00
2022-11-24T04:29:24.821Z,99280.56
2022-11-24T04:32:26.934Z,99287.41
2022-11-24T04:35:29.351Z,99287.19
2022-11-24T04:39:23.990Z,99295.72
2022-11-24T04:41:53.837Z,99299.00
2022-11-24T04:44:56.212Z,99300.03
2022-11-24T04:47:58.592Z,99308.72
2022-11-24T04:51:05.459Z,99319.25
2022-11-24T04:54:10.269Z,99325.31
2022-11-24T04:57:17.895Z,99319.81
2022-11-24T05:00:20.538Z,99320.53
2022-11-24T05:03:22.644Z,99328.44
2022-11-24T05:06:25.550Z,99335.16
2022-11-24T05:09:41.945Z,99337.28
2022-11-24T05:12:57.668Z,99330.72
2022-11-24T05:16:01.295Z,99340.75
2022-11-24T05:19:03.785Z,99338.06
2022-11-24T05:22:05.895Z,99344.22
2022-11-24T05:25:08.692Z,99346.69
2022-11-24T05:28:10.921Z,99348.78
2022-11-24T05:31:13.343Z,99343.75
2022-11-24T05:34:15.829Z,99350.09
2022-11-24T05:37:18.229Z,99349.31
2022-11-24T05:40:20.379Z,99349.03
2022-11-24T05:43:22.753Z,99344.06
2022-11-24T05:46:24.892Z,99346.28
2022-11-24T05:49:27.314Z,99357.56
2022-11-24T05:52:29.454Z,99358.25
2022-11-24T05:55:32.725Z,99364.22
2022-11-24T05:58:34.909Z,99363.31
2022-11-24T06:01:37.452Z,99375.94
2022-11-24T06:04:40.045Z,99378.91
2022-11-24T06:07:42.329Z,99384.97
2022-11-24T06:10:44.843Z,99375.63
2022-11-24T06:13:48.654Z,99385.38
2022-11-24T06:16:51.388Z,99368.50
2022-11-24T06:19:53.696Z,99387.44
2022-11-24T06:22:58.627Z,99395.22
2022-11-24T06:26:01.516Z,99397.50
2022-11-24T06:29:04.190Z,99397.69
2022-11-24T06:32:06.506Z,99409.09
2022-11-24T06:35:09.067Z,99400.53
2022-11-24T06:38:11.200Z,99428.44
2022-11-24T06:41:15.590Z,99417.84
2022-11-24T06:44:17.793Z,99421.00
2022-11-24T06:47:20.191Z,99432.81
2022-11-24T06:50:22.939Z,99437.78
2022-11-24T06:53:25.347Z,99438.16
2022-11-24T06:56:27.888Z,99444.91
2022-11-24T06:59:30.426Z,99451.59
2022-11-24T07:02:32.884Z,99442.75
2022-11-24T07:05:35.422Z,99457.34
2022-11-24T07:08:37.581Z,99463.12
2022-11-24T07:11:40.141Z,99462.41
2022-11-24T07:14:42.243Z,99473.16
2022-11-24T07:17:44.618Z,99474.72
2022-11-24T07:20:47.032Z,99465.31
2022-11-24T07:23:53.023Z,99476.63
2022-11-24T07:26:55.113Z,99483.00
2022-11-24T07:29:57.513Z,99487.78
2022-11-24T07:33:01.049Z,99493.16
2022-11-24T07:36:05.583Z,99493.16
2022-11-24T07:39:07.671Z,99498.59
2022-11-24T07:42:11.833Z,99480.06
2022-11-24T07:45:14.145Z,99492.84
2022-11-24T07:48:16.978Z,99493.03
2022-11-24T07:51:21.351Z,99499.41
2022-11-24T07:54:23.702Z,99507.16
2022-11-24T07:57:25.842Z,99505.16
2022-11-24T08:00:28.322Z,99507.97
2022-11-24T08:03:30.698Z,99512.91
2022-11-24T08:06:39.654Z,99502.69
2022-11-24T08:09:44.353Z,99506.66
2022-11-24T08:12:46.491Z,99492.03
2022-11-24T08:15:48.820Z,99498.59
2022-11-24T08:18:53.338Z,99509.03
2022-11-24T08:21:55.881Z,99501.78
2022-11-24T08:24:58.014Z,99508.06
2022-11-24T08:28:01.286Z,99505.25
2022-11-24T08:31:14.596Z,99523.66
2022-11-24T08:34:16.959Z,99526.44
2022-11-24T08:37:19.159Z,99531.00
2022-11-24T08:40:21.760Z,99532.00
2022-11-24T08:43:23.874Z,99538.75
2022-11-24T08:46:26.489Z,99545.22
2022-11-24T08:49:29.080Z,99542.81
2022-11-24T08:52:31.574Z,99540.97
2022-11-24T08:55:33.717Z,99534.38
2022-11-24T08:58:37.051Z,99550.81
2022-11-24T09:01:39.407Z,99549.50
2022-11-24T09:04:44.332Z,99546.09
2022-11-24T09:07:46.555Z,99555.06
2022-11-24T09:10:49.049Z,99550.66
2022-11-24T09:13:51.561Z,99557.22
2022-11-24T09:16:53.984Z,99554.66
2022-11-24T09:19:58.960Z,99554.06
2022-11-24T09:23:02.598Z,99562.31
2022-11-24T09:26:10.283Z,99564.19
2022-11-24T09:29:13.681Z,99555.19
2022-11-24T09:32:15.868Z,99564.19
2022-11-24T09:35:18.553Z,99563.97
2022-11-24T09:38:20.654Z,99567.34
2022-11-24T09:41:41.899Z,99571.72
2022-11-24T09:44:46.780Z,99567.84
2022-11-24T09:48:10.700Z,99574.59
2022-11-24T09:51:15.148Z,99566.91
2022-11-24T09:54:25.386Z,99567.72
2022-11-24T09:57:34.273Z,99572.41
2022-11-24T10:00:41.409Z,99561.56
2022-11-24T10:03:51.419Z,99559.59
2022-11-24T10:07:11.962Z,99560.09
2022-11-24T10:10:28.568Z,99554.25
2022-11-24T10:14:02.992Z,99561.41
2022-11-24T10:17:22.017Z,99573.03
2022-11-24T10:20:55.002Z,99553.66
2022-11-24T10:24:27.305Z,99567.78
2022-11-24T10:27:49.324Z,99562.88
2022-11-24T10:30:51.922Z,99563.78
2022-11-24T10:33:54.052Z,99566.63
2022-11-24T10:37:12.330Z,99567.16
2022-11-24T10:40:55.471Z,99571.09
2022-11-24T10:43:53.417Z,99569.09
2022-11-24T10:46:55.815Z,99574.00
2022-11-24T10:50:01.710Z,99579.38
2022-11-24T10:53:25.844Z,99595.78
2022-11-24T10:56:39.108Z,99595.19
2022-11-24T10:59:41.219Z,99599.88
2022-11-24T11:02:43.824Z,99605.72
2022-11-24T11:06:10.480Z,99603.72
2022-11-24T11:09:21.624Z,99614.06
2022-11-24T11:12:49.668Z,99612.69
2022-11-24T11:15:53.935Z,99611.78
2022-11-24T11:18:56.589Z,99641.56
2022-11-24T11:22:09.701Z,99630.81
2022-11-24T11:25:11.882Z,99640.63
2022-11-24T11:28:18.330Z,99625.47
2022-11-24T11:31:22.995Z,99627.37
2022-11-24T11:34:35.577Z,99647.16
2022-11-24T11:37:37.841Z,99645.22
2022-11-24T11:40:43.590Z,99653.19
2022-11-24T11:43:49.556Z,99652.66
2022-11-24T11:46:54.750Z,99663.69
2022-11-24T11:49:58.459Z,99653.38
2022-11-24T11:53:23.546Z,99660.91
2022-11-24T11:56:31.090Z,99666.97
2022-11-24T12:00:05.548Z,99667.44
2022-11-24T12:03:33.458Z,99656.56
2022-11-24T12:07:05.010Z,99661.16
2022-11-24T12:10:07.503Z,99660.03
2022-11-24T12:13:37.627Z,99661.56
2022-11-24T12:17:03.071Z,99663.16
2022-11-24T12:20:31.090Z,99666.84
2022-11-24T12:24:01.534Z,99649.13
2022-11-24T12:27:39.839Z,99659.78
2022-11-24T12:30:51.181Z,99660.31
2022-11-24T12:34:18.145Z,99686.69
2022-11-24T12:37:51.821Z,99671.22
2022-11-24T12:41:39.744Z,99663.78
2022-11-24T12:44:59.654Z,99664.91
2022-11-24T12:48:17.338Z,99686.88
2022-11-24T12:51:27.289Z,99678.56
2022-11-24T12:54:38.717Z,99687.16
2022-11-24T12:57:51.001Z,99687.50
2022-11-24T13:01:16.106Z,99683.91
2022-11-24T13:04:36.346Z,99691.69
2022-11-24T13:07:45.564Z,99691.84
2022-11-24T13:10:57.528Z,99687.81
2022-11-24T13:14:18.128Z,99685.94
2022-11-24T13:17:35.143Z,99689.22
2022-11-24T13:20:41.590Z,99684.78
2022-11-24T13:23:56.528Z,99698.81
2022-11-24T13:27:13.909Z,99686.34
2022-11-24T13:30:34.501Z,99703.47
2022-11-24T13:33:37.093Z,99705.34
2022-11-24T13:36:53.228Z,99694.34
2022-11-24T13:40:17.709Z,99708.84
2022-11-24T13:43:20.790Z,99701.72
2022-11-24T13:47:06.208Z,99710.31
2022-11-24T13:50:18.527Z,99702.13
2022-11-24T13:53:47.082Z,99712.56
2022-11-24T13:56:49.495Z,99704.31
2022-11-24T13:59:51.614Z,99706.03
2022-11-24T14:02:59.343Z,99715.69
2022-11-24T14:06:03.037Z,99714.00
2022-11-24T14:09:18.415Z,99711.03
2022-11-24T14:12:23.779Z,99713.72
2022-11-24T14:15:29.427Z,99737.03
2022-11-24T14:18:37.586Z,99728.16
2022-11-24T14:21:44.402Z,99738.31
2022-11-24T14:24:57.943Z,99735.09
2022-11-24T14:28:00.507Z,99744.59
2022-11-24T14:31:08.271Z,99742.31
2022-11-24T14:34:21.084Z,99746.00
2022-11-24T14:37:23.523Z,99754.06
2022-11-24T14:40:52.012Z,99751.69
2022-11-24T14:44:16.402Z,99753.47
2022-11-24T14:47:45.144Z,99760.75
2022-11-24T14:50:47.742Z,99756.34
2022-11-24T14:53:55.203Z,99766.31
2022-11-24T14:57:04.119Z,99766.63
2022-11-24T15:00:12.246Z,99779.75
2022-11-24T15:03:18.639Z,99779.19
2022-11-24T15:06:21.150Z,99790.63
2022-11-24T15:09:26.556Z,99791.31
2022-11-24T15:12:34.441Z,99801.97
2022-11-24T15:15:38.725Z,99798.59
2022-11-24T15:18:47.522Z,99799.00
2022-11-24T15:21:49.987Z,99807.16
2022-11-24T15:24:53.693Z,99803.28
2022-11-24T15:27:56.703Z,99797.81
2022-11-24T15:31:09.684Z,99802.00
2022-11-24T15:34:14.232Z,99803.75
2022-11-24T15:37:16.398Z,99804.06
2022-11-24T15:40:19.936Z,99814.31
2022-11-24T15:43:34.249Z,99820.88
2022-11-24T15:46:38.685Z,99817.66
2022-11-24T15:49:41.073Z,99818.56
2022-11-24T15:52:44.196Z,99824.03
2022-11-24T15:55:47.546Z,99826.72
2022-11-24T15:58:50.153Z,99819.13
2022-11-24T16:01:52.487Z,99832.19
2022-11-24T16:04:54.986Z,99831.06
2022-11-24T16:07:57.169Z,99829.97
2022-11-24T16:10:59.559Z,99826.22
2022-11-24T16:14:01.771Z,99843.13
2022-11-24T16:17:04.274Z,99836.31
2022-11-24T16:20:07.623Z,99839.69
2022-11-24T16:23:10.119Z,99835.28
2022-11-24T16:26:12.356Z,99844.88
2022-11-24T16:29:15.046Z,99842.00
2022-11-24T16:32:17.159Z,99840.66
2022-11-24T16:35:20.029Z,99838.31
2022-11-24T16:38:22.210Z,99840.72
2022-11-24T16:41:24.589Z,99836.81
2022-11-24T16:44:26.692Z,99842.63
2022-11-24T16:47:29.173Z,99848.81
2022-11-24T16:50:31.408Z,99850.03
2022-11-24T16:53:33.932Z,99849.41
2022-11-24T16:56:36.204Z,99855.00
2022-11-24T16:59:39.020Z,99854.28
2022-11-24T17:02:41.213Z,99862.09
2022-11-24T17:05:43.917Z,99855.84
2022-11-24T17:08:46.709Z,99859.03
2022-11-24T17:11:49.202Z,99857.44
2022-11-24T17:15:16.335Z,99866.47
2022-11-24T17:18:24.574Z,99862.69
2022-11-24T17:21:28.110Z,99865.28
2022-11-24T17:24:30.524Z,99867.47
2022-11-24T17:27:32.921Z,99877.63
2022-11-24T17:30:36.870Z,99874.78
2022-11-24T17:33:39.094Z,99878.00
2022-11-24T17:36:44.635Z,99892.34
2022-11-24T17:40:05.665Z,99885.41
2022-11-24T17:43:09.145Z,99894.25
2022-11-24T17:46:11.333Z,99901.19
2022-11-24T17:49:15.488Z,99896.78
2022-11-24T17:52:18.145Z,99905.72
2022-11-24T17:55:20.853Z,99913.12
2022-11-24T17:58:23.003Z,99918.66
2022-11-24T18:01:28.665Z,99918.94
2022-11-24T18:04:31.294Z,99929.38
2022-11-24T18:07:36.169Z,99922.59
2022-11-24T18:10:39.141Z,99934.06
2022-11-24T18:13:56.694Z,99936.69
2022-11-24T18:17:02.752Z,99941.03
2022-11-24T18:20:05.662Z,99935.38
2022-11-24T18:23:08.015Z,99943.13
2022-11-24T18:26:13.933Z,99938.34
2022-11-24T18:29:16.927Z,99943.66
2022-11-24T18:32:19.172Z,99943.13
2022-11-24T18:35:21.645Z,99949.41
2022-11-24T18:38:24.263Z,99957.19
2022-11-24T18:41:27.180Z,99956.84
2022-11-24T18:44:29.398Z,99954.72
2022-11-24T18:47:31.950Z,99952.84
2022-11-24T18:50:34.229Z,99954.97
2022-11-24T18:53:36.771Z,99965.16
2022-11-24T18:56:38.865Z,99959.25
2022-11-24T18:59:41.524Z,99962.94
2022-11-24T19:02:43.883Z,99958.56
2022-11-24T19:05:46.513Z,99964.81
2022-11-24T19:08:49.115Z,99967.19
2022-11-24T19:11:51.534Z,99971.28
2022-11-24T19:14:54.391Z,99978.75
2022-11-24T19:17:56.914Z,99987.41
2022-11-24T19:20:59.041Z,99988.69
2022-11-24T19:24:05.338Z,99992.22
2022-11-24T19:27:08.194Z,99994.06
2022-11-24T19:30:10.870Z,99999.28
2022-11-24T19:33:13.233Z,100002.06
2022-11-24T19:36:18.540Z,100006.03
2022-11-24T19:39:20.822Z,100010.78
2022-11-24T19:42:23.361Z,100013.78
2022-11-24T19:45:25.670Z,100016.72
2022-11-24T19:48:36.462Z,100018.56
2022-11-24T19:51:39.825Z,100021.78
2022-11-24T19:54:42.430Z,100020.37
2022-11-24T19:57:44.621Z,100034.03
2022-11-24T20:00:47.118Z,100036.69
2022-11-24T20:03:56.016Z,100045.09
2022-11-24T20:06:58.303Z,100059.06
2022-11-24T20:10:06.097Z,100055.13
2022-11-24T20:13:09.816Z,100064.84
2022-11-24T20:16:26.599Z,100073.06
2022-11-24T20:19:29.115Z,100065.41
2022-11-24T20:22:31.835Z,100073.00
2022-11-24T20:25:37.229Z,100083.12
2022-11-24T20:28:40.634Z,100095.44
2022-11-24T20:31:45.859Z,100090.19
2022-11-24T20:34:49.303Z,100092.81
2022-11-24T20:37:51.434Z,100095.22
2022-11-24T20:41:03.483Z,100103.59
2022-11-24T20:44:13.616Z,100106.56
2022-11-24T20:47:16.144Z,100105.47
2022-11-24T20:50:18.497Z,100116.19
2022-11-24T20:53:20.958Z,100118.66
2022-11-24T20:56:28.717Z,100119.75
2022-11-24T20:59:31.341Z,100116.44
2022-11-24T21:02:33.593Z,100111.16
2022-11-24T21:05:36.064Z,100116.78
2022-11-24T21:08:39.855Z,100112.09
2022-11-24T21:11:43.221Z,100128.09
2022-11-24T21:14:45.548Z,100126.53
2022-11-24T21:17:47.942Z,100123.84
2022-11-24T21:20:50.340Z,100127.94
2022-11-24T21:23:56.457Z,100130.59
2022-11-24T21:26:58.722Z,100131.41
2022-11-24T21:30:01.212Z,100126.59
2022-11-24T21:33:05.116Z,100124.44
2022-11-24T21:36:08.367Z,100130.16
2022-11-24T21:39:13.634Z,100126.72
2022-11-24T21:42:16.455Z,100127.03
2022-11-24T21:45:18.597Z,100133.41
2022-11-24T21:48:21.167Z,100137.25
2022-11-24T21:51:23.315Z,100137.28
2022-11-24T21:54:25.826Z,100137.00
2022-11-24T21:57:28.493Z,100131.38
2022-11-24T22:00:30.870Z,100141.44
2022-11-24T22:03:33.284Z,100155.28
2022-11-24T22:06:35.561Z,100161.28
2022-11-24T22:09:38.013Z,100161.91
2022-11-24T22:12:40.208Z,100160.34
2022-11-24T22:15:43.035Z,100169.75
2022-11-24T22:18:46.013Z,100178.38
2022-11-24T22:21:49.453Z,100180.56
2022-11-24T22:24:51.661Z,100178.16
2022-11-24T22:27:54.158Z,100185.91
2022-11-24T22:30:56.272Z,100183.22
2022-11-24T22:34:00.318Z,100189.37
2022-11-24T22:37:02.610Z,100192.34
2022-11-24T22:40:05.688Z,100189.69
2022-11-24T22:43:07.806Z,100194.25
2022-11-24T22:46:11.554Z,100188.38
2022-11-24T22:49:14.055Z,100189.19
2022-11-24T22:52:16.563Z,100193.72
2022-11-24T22:55:18.732Z,100203.34
2022-11-24T22:58:21.185Z,100196.37
2022-11-24T23:01:25.030Z,100199.06
2022-11-24T23:04:27.642Z,100201.44
2022-11-24T23:07:29.979Z,100211.13
2022-11-24T23:10:32.443Z,100208.97
2022-11-24T23:13:34.843Z,100212.19
2022-11-24T23:16:37.424Z,100212.72
2022-11-24T23:19:39.632Z,100216.22
2022-11-24T23:22:42.090Z,100219.41
2022-11-24T23:25:44.196Z,100215.12
2022-11-24T23:28:46.843Z,100226.09
2022-11-24T23:31:49.066Z,100222.34
2022-11-24T23:34:51.495Z,100222.38
2022-11-24T23:38:07.128Z,100220.19
2022-11-24T23:41:12.590Z,100217.53
2022-11-24T23:44:15.369Z,100226.87
2022-11-24T23:47:17.788Z,100243.47
2022-11-24T23:50:19.949Z,100241.34
2022-11-24T23:53:22.673Z,100242.94
2022-11-24T23:56:33.386Z,100237.88
2022-11-24T23:59:36.096Z,100236.78
